sensor_id;sensor_type;location;lat;lon;timestamp;temperature;humidity
298;DHT22;133;49.626;9.680;2023-12-14T00:01:52;8.10;98.20
298;DHT22;133;49.626;9.680;2023-12-14T00:04:18;8.10;98.00
298;DHT22;133;49.626;9.680;2023-12-14T00:06:43;7.90;98.10
298;DHT22;133;49.626;9.680;2023-12-14T00:09:09;7.90;98.50
298;DHT22;133;49.626;9.680;2023-12-14T00:11:41;7.90;98.50
298;DHT22;133;49.626;9.680;2023-12-14T00:14:06;8.10;97.70
298;DHT22;133;49.626;9.680;2023-12-14T00:16:32;8.00;97.90
298;DHT22;133;49.626;9.680;2023-12-14T00:18:58;7.90;98.10
298;DHT22;133;49.626;9.680;2023-12-14T00:21:23;7.80;98.70
298;DHT22;133;49.626;9.680;2023-12-14T00:23:49;7.80;98.70
298;DHT22;133;49.626;9.680;2023-12-14T00:26:14;7.80;98.70
298;DHT22;133;49.626;9.680;2023-12-14T00:28:40;7.80;98.70
298;DHT22;133;49.626;9.680;2023-12-14T00:31:06;7.80;98.70
298;DHT22;133;49.626;9.680;2023-12-14T00:33:31;7.90;98.70
298;DHT22;133;49.626;9.680;2023-12-14T00:35:57;7.90;98.70
298;DHT22;133;49.626;9.680;2023-12-14T00:38:23;7.90;98.70
298;DHT22;133;49.626;9.680;2023-12-14T00:40:48;8.00;98.70
298;DHT22;133;49.626;9.680;2023-12-14T00:43:14;8.00;98.70
298;DHT22;133;49.626;9.680;2023-12-14T00:45:39;8.00;98.60
298;DHT22;133;49.626;9.680;2023-12-14T00:48:06;7.90;98.50
298;DHT22;133;49.626;9.680;2023-12-14T00:50:32;7.90;98.50
298;DHT22;133;49.626;9.680;2023-12-14T00:52:58;8.00;98.20
298;DHT22;133;49.626;9.680;2023-12-14T00:55:23;7.90;98.10
298;DHT22;133;49.626;9.680;2023-12-14T00:57:49;7.90;98.50
298;DHT22;133;49.626;9.680;2023-12-14T01:00:15;7.80;98.30
298;DHT22;133;49.626;9.680;2023-12-14T01:02:41;7.80;98.70
298;DHT22;133;49.626;9.680;2023-12-14T01:05:06;7.80;98.60
298;DHT22;133;49.626;9.680;2023-12-14T01:07:32;7.90;98.50
298;DHT22;133;49.626;9.680;2023-12-14T01:09:59;7.90;98.40
298;DHT22;133;49.626;9.680;2023-12-14T01:12:24;7.90;98.60
298;DHT22;133;49.626;9.680;2023-12-14T01:14:50;7.80;98.60
298;DHT22;133;49.626;9.680;2023-12-14T01:17:16;7.80;98.30
298;DHT22;133;49.626;9.680;2023-12-14T01:19:41;7.80;98.20
298;DHT22;133;49.626;9.680;2023-12-14T01:22:07;7.80;98.20
298;DHT22;133;49.626;9.680;2023-12-14T01:24:33;7.80;98.20
298;DHT22;133;49.626;9.680;2023-12-14T01:26:58;7.70;98.40
298;DHT22;133;49.626;9.680;2023-12-14T01:29:24;7.70;98.60
298;DHT22;133;49.626;9.680;2023-12-14T01:31:49;7.80;98.70
298;DHT22;133;49.626;9.680;2023-12-14T01:34:15;7.80;98.70
298;DHT22;133;49.626;9.680;2023-12-14T01:36:41;7.80;98.70
298;DHT22;133;49.626;9.680;2023-12-14T01:39:07;7.80;98.70
298;DHT22;133;49.626;9.680;2023-12-14T01:41:33;7.80;98.70
298;DHT22;133;49.626;9.680;2023-12-14T01:43:58;7.80;98.70
298;DHT22;133;49.626;9.680;2023-12-14T01:46:24;7.90;98.70
298;DHT22;133;49.626;9.680;2023-12-14T01:48:50;7.90;98.70
298;DHT22;133;49.626;9.680;2023-12-14T01:51:17;7.90;98.40
298;DHT22;133;49.626;9.680;2023-12-14T01:53:43;8.00;98.20
298;DHT22;133;49.626;9.680;2023-12-14T01:56:09;7.90;98.30
298;DHT22;133;49.626;9.680;2023-12-14T01:58:34;8.00;98.10
298;DHT22;133;49.626;9.680;2023-12-14T02:01:08;7.90;98.00
298;DHT22;133;49.626;9.680;2023-12-14T02:03:48;7.90;97.80
298;DHT22;133;49.626;9.680;2023-12-14T02:06:15;7.70;98.00
298;DHT22;133;49.626;9.680;2023-12-14T02:08:41;7.70;97.90
298;DHT22;133;49.626;9.680;2023-12-14T02:11:06;7.50;97.60
298;DHT22;133;49.626;9.680;2023-12-14T02:13:32;7.40;98.50
298;DHT22;133;49.626;9.680;2023-12-14T02:15:58;7.30;98.70
298;DHT22;133;49.626;9.680;2023-12-14T02:18:24;7.20;98.70
298;DHT22;133;49.626;9.680;2023-12-14T02:20:49;7.20;98.70
298;DHT22;133;49.626;9.680;2023-12-14T02:23:15;7.20;98.70
298;DHT22;133;49.626;9.680;2023-12-14T02:25:40;7.10;98.50
298;DHT22;133;49.626;9.680;2023-12-14T02:28:06;7.00;98.70
298;DHT22;133;49.626;9.680;2023-12-14T02:30:32;6.90;98.70
298;DHT22;133;49.626;9.680;2023-12-14T02:32:58;6.90;98.70
298;DHT22;133;49.626;9.680;2023-12-14T02:35:24;6.70;98.70
298;DHT22;133;49.626;9.680;2023-12-14T02:37:49;6.60;98.70
298;DHT22;133;49.626;9.680;2023-12-14T02:40:15;6.60;98.70
298;DHT22;133;49.626;9.680;2023-12-14T02:42:41;6.50;98.70
298;DHT22;133;49.626;9.680;2023-12-14T02:45:09;6.40;98.70
298;DHT22;133;49.626;9.680;2023-12-14T02:47:35;6.30;98.70
298;DHT22;133;49.626;9.680;2023-12-14T02:50:00;6.20;98.70
298;DHT22;133;49.626;9.680;2023-12-14T02:52:26;6.20;98.70
298;DHT22;133;49.626;9.680;2023-12-14T02:54:52;6.10;98.70
298;DHT22;133;49.626;9.680;2023-12-14T02:57:18;6.10;98.70
298;DHT22;133;49.626;9.680;2023-12-14T02:59:44;6.10;98.70
298;DHT22;133;49.626;9.680;2023-12-14T03:02:09;6.20;98.70
298;DHT22;133;49.626;9.680;2023-12-14T03:04:38;6.30;98.70
298;DHT22;133;49.626;9.680;2023-12-14T03:07:04;6.30;98.70
298;DHT22;133;49.626;9.680;2023-12-14T03:09:30;6.10;98.70
298;DHT22;133;49.626;9.680;2023-12-14T03:11:55;6.10;98.70
298;DHT22;133;49.626;9.680;2023-12-14T03:14:21;6.00;98.70
298;DHT22;133;49.626;9.680;2023-12-14T03:16:47;6.00;98.70
298;DHT22;133;49.626;9.680;2023-12-14T03:19:14;6.10;98.70
298;DHT22;133;49.626;9.680;2023-12-14T03:21:41;6.10;98.70
298;DHT22;133;49.626;9.680;2023-12-14T03:24:07;6.00;98.70
298;DHT22;133;49.626;9.680;2023-12-14T03:26:33;6.00;98.70
298;DHT22;133;49.626;9.680;2023-12-14T03:28:58;6.00;98.70
298;DHT22;133;49.626;9.680;2023-12-14T03:31:24;6.00;98.70
298;DHT22;133;49.626;9.680;2023-12-14T03:33:49;6.00;98.70
298;DHT22;133;49.626;9.680;2023-12-14T03:36:15;5.90;98.70
298;DHT22;133;49.626;9.680;2023-12-14T03:38:40;5.90;98.70
298;DHT22;133;49.626;9.680;2023-12-14T03:41:06;5.90;98.70
298;DHT22;133;49.626;9.680;2023-12-14T03:43:32;5.90;98.70
298;DHT22;133;49.626;9.680;2023-12-14T03:45:57;5.90;98.70
298;DHT22;133;49.626;9.680;2023-12-14T03:48:23;5.80;98.70
298;DHT22;133;49.626;9.680;2023-12-14T03:50:48;5.70;98.70
298;DHT22;133;49.626;9.680;2023-12-14T03:53:14;5.80;98.70
298;DHT22;133;49.626;9.680;2023-12-14T03:55:40;5.80;98.70
298;DHT22;133;49.626;9.680;2023-12-14T03:58:05;5.90;98.70
298;DHT22;133;49.626;9.680;2023-12-14T04:00:32;6.00;98.70
298;DHT22;133;49.626;9.680;2023-12-14T04:02:57;6.00;98.70
298;DHT22;133;49.626;9.680;2023-12-14T04:05:23;6.10;98.70
298;DHT22;133;49.626;9.680;2023-12-14T04:07:48;6.10;98.70
298;DHT22;133;49.626;9.680;2023-12-14T04:10:14;6.00;98.70
298;DHT22;133;49.626;9.680;2023-12-14T04:12:40;6.10;98.70
298;DHT22;133;49.626;9.680;2023-12-14T04:15:07;6.10;98.70
298;DHT22;133;49.626;9.680;2023-12-14T04:17:34;6.00;98.70
298;DHT22;133;49.626;9.680;2023-12-14T04:20:01;6.10;98.70
298;DHT22;133;49.626;9.680;2023-12-14T04:22:27;6.10;98.70
298;DHT22;133;49.626;9.680;2023-12-14T04:24:52;6.10;98.70
298;DHT22;133;49.626;9.680;2023-12-14T04:27:18;6.10;98.70
298;DHT22;133;49.626;9.680;2023-12-14T04:29:44;6.10;98.70
298;DHT22;133;49.626;9.680;2023-12-14T04:32:10;6.10;98.70
298;DHT22;133;49.626;9.680;2023-12-14T04:34:36;6.10;98.70
298;DHT22;133;49.626;9.680;2023-12-14T04:37:02;6.10;98.70
298;DHT22;133;49.626;9.680;2023-12-14T04:39:28;6.20;98.70
298;DHT22;133;49.626;9.680;2023-12-14T04:41:54;6.10;98.70
298;DHT22;133;49.626;9.680;2023-12-14T04:44:20;6.00;98.70
298;DHT22;133;49.626;9.680;2023-12-14T04:46:49;6.00;98.70
298;DHT22;133;49.626;9.680;2023-12-14T04:49:14;6.00;98.70
298;DHT22;133;49.626;9.680;2023-12-14T04:51:40;6.00;98.70
298;DHT22;133;49.626;9.680;2023-12-14T04:54:06;6.00;98.70
298;DHT22;133;49.626;9.680;2023-12-14T04:56:31;6.10;98.70
298;DHT22;133;49.626;9.680;2023-12-14T04:59:00;6.20;98.70
298;DHT22;133;49.626;9.680;2023-12-14T05:01:26;6.30;98.70
298;DHT22;133;49.626;9.680;2023-12-14T05:03:55;6.30;98.70
298;DHT22;133;49.626;9.680;2023-12-14T05:06:21;6.30;98.70
298;DHT22;133;49.626;9.680;2023-12-14T05:08:46;6.30;98.70
298;DHT22;133;49.626;9.680;2023-12-14T05:11:14;6.20;98.70
298;DHT22;133;49.626;9.680;2023-12-14T05:13:41;6.30;98.70
298;DHT22;133;49.626;9.680;2023-12-14T05:16:07;6.30;98.70
298;DHT22;133;49.626;9.680;2023-12-14T05:18:40;6.30;98.70
298;DHT22;133;49.626;9.680;2023-12-14T05:21:06;6.30;98.70
298;DHT22;133;49.626;9.680;2023-12-14T05:23:35;6.30;98.70
298;DHT22;133;49.626;9.680;2023-12-14T05:26:00;6.40;98.70
298;DHT22;133;49.626;9.680;2023-12-14T05:28:26;6.40;98.70
298;DHT22;133;49.626;9.680;2023-12-14T05:30:52;6.50;98.70
298;DHT22;133;49.626;9.680;2023-12-14T05:33:24;6.50;98.70
298;DHT22;133;49.626;9.680;2023-12-14T05:35:50;6.50;98.70
298;DHT22;133;49.626;9.680;2023-12-14T05:38:16;6.50;98.70
298;DHT22;133;49.626;9.680;2023-12-14T05:40:41;6.60;98.70
298;DHT22;133;49.626;9.680;2023-12-14T05:43:08;6.70;98.70
298;DHT22;133;49.626;9.680;2023-12-14T05:45:33;6.70;98.70
298;DHT22;133;49.626;9.680;2023-12-14T05:47:59;6.70;98.70
298;DHT22;133;49.626;9.680;2023-12-14T05:50:24;6.70;98.70
298;DHT22;133;49.626;9.680;2023-12-14T05:52:50;6.70;98.70
298;DHT22;133;49.626;9.680;2023-12-14T05:55:16;6.80;98.70
298;DHT22;133;49.626;9.680;2023-12-14T05:57:49;6.80;98.70
298;DHT22;133;49.626;9.680;2023-12-14T06:00:17;6.80;98.70
298;DHT22;133;49.626;9.680;2023-12-14T06:02:42;6.80;98.70
298;DHT22;133;49.626;9.680;2023-12-14T06:05:08;6.80;98.70
298;DHT22;133;49.626;9.680;2023-12-14T06:07:34;6.90;98.70
298;DHT22;133;49.626;9.680;2023-12-14T06:09:59;6.90;98.70
298;DHT22;133;49.626;9.680;2023-12-14T06:12:26;6.80;98.70
298;DHT22;133;49.626;9.680;2023-12-14T06:14:52;6.80;98.70
298;DHT22;133;49.626;9.680;2023-12-14T06:17:18;6.80;98.70
298;DHT22;133;49.626;9.680;2023-12-14T06:19:43;6.80;98.70
298;DHT22;133;49.626;9.680;2023-12-14T06:22:09;6.80;98.70
298;DHT22;133;49.626;9.680;2023-12-14T06:24:35;6.90;98.70
298;DHT22;133;49.626;9.680;2023-12-14T06:27:00;6.90;98.70
298;DHT22;133;49.626;9.680;2023-12-14T06:29:26;6.90;98.70
298;DHT22;133;49.626;9.680;2023-12-14T06:31:51;6.90;98.70
298;DHT22;133;49.626;9.680;2023-12-14T06:34:17;7.00;98.70
298;DHT22;133;49.626;9.680;2023-12-14T06:36:44;7.00;98.70
298;DHT22;133;49.626;9.680;2023-12-14T06:39:10;6.90;98.70
298;DHT22;133;49.626;9.680;2023-12-14T06:41:36;7.00;98.70
298;DHT22;133;49.626;9.680;2023-12-14T06:44:02;6.90;98.70
298;DHT22;133;49.626;9.680;2023-12-14T06:46:28;7.00;98.70
298;DHT22;133;49.626;9.680;2023-12-14T06:48:53;7.00;98.40
298;DHT22;133;49.626;9.680;2023-12-14T06:51:21;6.90;98.30
298;DHT22;133;49.626;9.680;2023-12-14T06:53:47;6.90;98.20
298;DHT22;133;49.626;9.680;2023-12-14T06:56:14;6.90;98.40
298;DHT22;133;49.626;9.680;2023-12-14T06:58:42;6.90;98.40
298;DHT22;133;49.626;9.680;2023-12-14T07:01:15;6.80;98.60
298;DHT22;133;49.626;9.680;2023-12-14T07:03:44;6.80;98.70
298;DHT22;133;49.626;9.680;2023-12-14T07:06:13;6.80;98.70
298;DHT22;133;49.626;9.680;2023-12-14T07:08:40;6.80;98.70
298;DHT22;133;49.626;9.680;2023-12-14T07:11:07;6.70;98.70
298;DHT22;133;49.626;9.680;2023-12-14T07:13:33;6.70;98.70
298;DHT22;133;49.626;9.680;2023-12-14T07:15:59;6.70;98.70
298;DHT22;133;49.626;9.680;2023-12-14T07:18:25;6.60;98.70
298;DHT22;133;49.626;9.680;2023-12-14T07:20:50;6.50;98.70
298;DHT22;133;49.626;9.680;2023-12-14T07:23:16;6.50;98.70
298;DHT22;133;49.626;9.680;2023-12-14T07:25:44;6.40;98.70
298;DHT22;133;49.626;9.680;2023-12-14T07:28:10;6.50;98.70
298;DHT22;133;49.626;9.680;2023-12-14T07:30:36;6.50;98.70
298;DHT22;133;49.626;9.680;2023-12-14T07:33:01;6.50;98.70
298;DHT22;133;49.626;9.680;2023-12-14T07:35:27;6.60;98.70
298;DHT22;133;49.626;9.680;2023-12-14T07:37:53;6.60;98.00
298;DHT22;133;49.626;9.680;2023-12-14T07:40:18;6.50;97.80
298;DHT22;133;49.626;9.680;2023-12-14T07:42:44;6.40;98.30
298;DHT22;133;49.626;9.680;2023-12-14T07:45:28;6.40;98.70
298;DHT22;133;49.626;9.680;2023-12-14T07:47:53;6.40;98.70
298;DHT22;133;49.626;9.680;2023-12-14T07:50:19;6.40;98.70
298;DHT22;133;49.626;9.680;2023-12-14T07:52:45;6.50;98.70
298;DHT22;133;49.626;9.680;2023-12-14T07:55:10;6.50;98.70
298;DHT22;133;49.626;9.680;2023-12-14T07:57:38;6.50;98.70
298;DHT22;133;49.626;9.680;2023-12-14T08:00:05;6.60;98.70
298;DHT22;133;49.626;9.680;2023-12-14T08:02:31;6.60;98.70
298;DHT22;133;49.626;9.680;2023-12-14T08:04:57;6.70;98.70
298;DHT22;133;49.626;9.680;2023-12-14T08:07:22;6.80;98.70
298;DHT22;133;49.626;9.680;2023-12-14T08:09:48;6.90;98.70
298;DHT22;133;49.626;9.680;2023-12-14T08:12:13;7.00;98.70
298;DHT22;133;49.626;9.680;2023-12-14T08:14:39;7.00;98.70
298;DHT22;133;49.626;9.680;2023-12-14T08:17:09;7.00;98.70
298;DHT22;133;49.626;9.680;2023-12-14T08:19:34;7.00;98.70
298;DHT22;133;49.626;9.680;2023-12-14T08:22:00;7.10;98.70
298;DHT22;133;49.626;9.680;2023-12-14T08:24:26;7.10;98.50
298;DHT22;133;49.626;9.680;2023-12-14T08:26:51;7.10;98.30
298;DHT22;133;49.626;9.680;2023-12-14T08:29:17;7.00;98.30
298;DHT22;133;49.626;9.680;2023-12-14T08:31:42;7.10;98.50
298;DHT22;133;49.626;9.680;2023-12-14T08:34:08;7.10;98.50
298;DHT22;133;49.626;9.680;2023-12-14T08:36:34;7.20;98.50
298;DHT22;133;49.626;9.680;2023-12-14T08:39:00;7.20;98.70
298;DHT22;133;49.626;9.680;2023-12-14T08:41:25;7.30;98.70
298;DHT22;133;49.626;9.680;2023-12-14T08:43:51;7.40;98.70
298;DHT22;133;49.626;9.680;2023-12-14T08:46:16;7.40;98.70
298;DHT22;133;49.626;9.680;2023-12-14T08:48:42;7.50;98.70
298;DHT22;133;49.626;9.680;2023-12-14T08:51:08;7.50;98.70
298;DHT22;133;49.626;9.680;2023-12-14T08:53:33;7.60;98.70
298;DHT22;133;49.626;9.680;2023-12-14T08:55:59;7.70;98.70
298;DHT22;133;49.626;9.680;2023-12-14T08:58:25;7.70;98.70
298;DHT22;133;49.626;9.680;2023-12-14T09:00:50;7.80;98.50
298;DHT22;133;49.626;9.680;2023-12-14T09:03:19;7.90;98.30
298;DHT22;133;49.626;9.680;2023-12-14T09:05:44;8.00;98.40
298;DHT22;133;49.626;9.680;2023-12-14T09:08:10;8.10;98.10
298;DHT22;133;49.626;9.680;2023-12-14T09:10:36;8.20;98.30
298;DHT22;133;49.626;9.680;2023-12-14T09:13:02;8.20;97.50
298;DHT22;133;49.626;9.680;2023-12-14T09:15:32;8.30;97.30
298;DHT22;133;49.626;9.680;2023-12-14T09:17:58;8.30;97.50
298;DHT22;133;49.626;9.680;2023-12-14T09:20:24;8.20;97.50
298;DHT22;133;49.626;9.680;2023-12-14T09:22:49;8.40;97.50
298;DHT22;133;49.626;9.680;2023-12-14T09:25:16;8.40;97.30
298;DHT22;133;49.626;9.680;2023-12-14T09:27:41;8.50;97.40
298;DHT22;133;49.626;9.680;2023-12-14T09:30:08;8.50;97.20
298;DHT22;133;49.626;9.680;2023-12-14T09:32:34;8.60;97.20
298;DHT22;133;49.626;9.680;2023-12-14T09:34:59;8.60;97.40
298;DHT22;133;49.626;9.680;2023-12-14T09:37:25;8.70;97.40
298;DHT22;133;49.626;9.680;2023-12-14T09:39:51;8.80;97.30
298;DHT22;133;49.626;9.680;2023-12-14T09:42:19;8.80;97.30
298;DHT22;133;49.626;9.680;2023-12-14T09:44:48;8.90;97.20
298;DHT22;133;49.626;9.680;2023-12-14T09:47:14;9.00;97.10
298;DHT22;133;49.626;9.680;2023-12-14T09:49:41;9.10;96.60
298;DHT22;133;49.626;9.680;2023-12-14T09:52:08;9.10;96.10
298;DHT22;133;49.626;9.680;2023-12-14T09:54:34;9.10;96.00
298;DHT22;133;49.626;9.680;2023-12-14T09:57:00;9.10;96.10
298;DHT22;133;49.626;9.680;2023-12-14T09:59:25;9.10;96.40
298;DHT22;133;49.626;9.680;2023-12-14T10:01:51;9.10;96.30
298;DHT22;133;49.626;9.680;2023-12-14T10:04:19;9.00;96.50
298;DHT22;133;49.626;9.680;2023-12-14T10:06:46;9.00;96.40
298;DHT22;133;49.626;9.680;2023-12-14T10:09:12;9.00;96.20
298;DHT22;133;49.626;9.680;2023-12-14T10:11:43;9.00;96.20
298;DHT22;133;49.626;9.680;2023-12-14T10:14:22;9.10;96.30
298;DHT22;133;49.626;9.680;2023-12-14T10:16:49;9.10;96.30
298;DHT22;133;49.626;9.680;2023-12-14T10:19:17;9.10;96.40
298;DHT22;133;49.626;9.680;2023-12-14T10:21:42;9.10;96.30
298;DHT22;133;49.626;9.680;2023-12-14T10:24:08;9.10;96.30
298;DHT22;133;49.626;9.680;2023-12-14T10:26:34;9.10;96.40
298;DHT22;133;49.626;9.680;2023-12-14T10:29:01;9.10;96.30
298;DHT22;133;49.626;9.680;2023-12-14T10:31:30;9.10;96.20
298;DHT22;133;49.626;9.680;2023-12-14T10:33:56;9.20;96.30
298;DHT22;133;49.626;9.680;2023-12-14T10:36:25;9.20;96.20
298;DHT22;133;49.626;9.680;2023-12-14T10:38:56;9.30;96.00
298;DHT22;133;49.626;9.680;2023-12-14T10:41:22;9.40;95.70
298;DHT22;133;49.626;9.680;2023-12-14T10:43:48;9.40;95.70
298;DHT22;133;49.626;9.680;2023-12-14T10:46:15;9.40;95.20
298;DHT22;133;49.626;9.680;2023-12-14T10:48:43;9.40;95.30
298;DHT22;133;49.626;9.680;2023-12-14T10:51:11;9.40;94.90
298;DHT22;133;49.626;9.680;2023-12-14T10:53:37;9.40;95.40
298;DHT22;133;49.626;9.680;2023-12-14T10:56:09;9.30;95.20
298;DHT22;133;49.626;9.680;2023-12-14T10:58:46;9.40;95.30
298;DHT22;133;49.626;9.680;2023-12-14T11:01:16;9.30;95.70
298;DHT22;133;49.626;9.680;2023-12-14T11:03:44;9.20;95.80
298;DHT22;133;49.626;9.680;2023-12-14T11:06:36;9.20;96.00
298;DHT22;133;49.626;9.680;2023-12-14T11:09:07;9.10;96.20
298;DHT22;133;49.626;9.680;2023-12-14T11:14:19;9.00;96.70
298;DHT22;133;49.626;9.680;2023-12-14T11:16:47;9.00;97.20
298;DHT22;133;49.626;9.680;2023-12-14T11:24:25;8.80;97.50
298;DHT22;133;49.626;9.680;2023-12-14T11:26:53;8.90;97.10
298;DHT22;133;49.626;9.680;2023-12-14T11:29:19;8.70;97.10
298;DHT22;133;49.626;9.680;2023-12-14T11:31:46;8.60;97.60
298;DHT22;133;49.626;9.680;2023-12-14T11:34:13;8.60;98.00
298;DHT22;133;49.626;9.680;2023-12-14T11:36:40;8.60;97.90
298;DHT22;133;49.626;9.680;2023-12-14T11:39:10;8.60;98.20
298;DHT22;133;49.626;9.680;2023-12-14T11:41:36;8.60;98.20
298;DHT22;133;49.626;9.680;2023-12-14T11:44:04;8.60;98.20
298;DHT22;133;49.626;9.680;2023-12-14T11:46:29;8.50;98.40
298;DHT22;133;49.626;9.680;2023-12-14T11:48:56;8.50;98.70
298;DHT22;133;49.626;9.680;2023-12-14T11:51:22;8.50;98.70
298;DHT22;133;49.626;9.680;2023-12-14T11:53:48;8.60;98.70
298;DHT22;133;49.626;9.680;2023-12-14T11:56:16;8.60;98.70
298;DHT22;133;49.626;9.680;2023-12-14T11:58:43;8.50;98.70
298;DHT22;133;49.626;9.680;2023-12-14T12:01:15;8.60;98.70
298;DHT22;133;49.626;9.680;2023-12-14T12:03:42;8.60;98.70
298;DHT22;133;49.626;9.680;2023-12-14T12:06:22;8.60;98.70
298;DHT22;133;49.626;9.680;2023-12-14T12:08:48;8.50;98.70
298;DHT22;133;49.626;9.680;2023-12-14T12:11:22;8.50;98.70
298;DHT22;133;49.626;9.680;2023-12-14T12:13:55;8.60;98.70
298;DHT22;133;49.626;9.680;2023-12-14T12:16:21;8.50;98.70
298;DHT22;133;49.626;9.680;2023-12-14T12:18:47;8.40;98.70
298;DHT22;133;49.626;9.680;2023-12-14T12:21:13;8.50;98.70
298;DHT22;133;49.626;9.680;2023-12-14T12:23:39;8.50;98.70
298;DHT22;133;49.626;9.680;2023-12-14T12:26:07;8.40;98.70
298;DHT22;133;49.626;9.680;2023-12-14T12:28:32;8.30;98.70
298;DHT22;133;49.626;9.680;2023-12-14T12:30:58;8.30;98.70
298;DHT22;133;49.626;9.680;2023-12-14T12:33:27;8.30;98.70
298;DHT22;133;49.626;9.680;2023-12-14T12:35:54;8.30;98.70
298;DHT22;133;49.626;9.680;2023-12-14T12:38:20;8.30;98.70
298;DHT22;133;49.626;9.680;2023-12-14T12:40:46;8.20;98.70
298;DHT22;133;49.626;9.680;2023-12-14T12:43:12;8.20;98.70
298;DHT22;133;49.626;9.680;2023-12-14T12:45:39;8.20;98.70
298;DHT22;133;49.626;9.680;2023-12-14T12:48:05;8.20;98.70
298;DHT22;133;49.626;9.680;2023-12-14T12:50:32;8.20;98.70
298;DHT22;133;49.626;9.680;2023-12-14T12:52:58;8.20;98.70
298;DHT22;133;49.626;9.680;2023-12-14T12:55:24;8.30;98.70
298;DHT22;133;49.626;9.680;2023-12-14T12:57:50;8.50;98.70
298;DHT22;133;49.626;9.680;2023-12-14T13:00:16;8.50;98.70
298;DHT22;133;49.626;9.680;2023-12-14T13:02:43;8.50;98.70
298;DHT22;133;49.626;9.680;2023-12-14T13:05:09;8.50;98.70
298;DHT22;133;49.626;9.680;2023-12-14T13:07:36;8.50;98.70
298;DHT22;133;49.626;9.680;2023-12-14T13:10:05;8.60;98.70
298;DHT22;133;49.626;9.680;2023-12-14T13:12:31;8.50;98.70
298;DHT22;133;49.626;9.680;2023-12-14T13:14:58;8.50;98.70
298;DHT22;133;49.626;9.680;2023-12-14T13:17:24;8.40;98.70
298;DHT22;133;49.626;9.680;2023-12-14T13:19:50;8.50;98.70
298;DHT22;133;49.626;9.680;2023-12-14T13:22:16;8.50;98.60
298;DHT22;133;49.626;9.680;2023-12-14T13:24:41;8.60;97.70
298;DHT22;133;49.626;9.680;2023-12-14T13:27:07;8.50;97.80
298;DHT22;133;49.626;9.680;2023-12-14T13:29:33;8.50;97.60
298;DHT22;133;49.626;9.680;2023-12-14T13:32:00;8.50;98.00
298;DHT22;133;49.626;9.680;2023-12-14T13:34:26;8.50;98.20
298;DHT22;133;49.626;9.680;2023-12-14T13:36:53;8.50;97.40
298;DHT22;133;49.626;9.680;2023-12-14T13:39:19;8.40;96.80
298;DHT22;133;49.626;9.680;2023-12-14T13:41:45;8.50;96.50
298;DHT22;133;49.626;9.680;2023-12-14T13:44:10;8.40;97.00
298;DHT22;133;49.626;9.680;2023-12-14T13:46:36;8.30;97.20
298;DHT22;133;49.626;9.680;2023-12-14T13:49:02;8.30;97.60
298;DHT22;133;49.626;9.680;2023-12-14T13:51:28;8.30;97.30
298;DHT22;133;49.626;9.680;2023-12-14T13:53:53;8.40;97.00
298;DHT22;133;49.626;9.680;2023-12-14T13:56:19;8.20;97.50
298;DHT22;133;49.626;9.680;2023-12-14T13:58:45;8.20;98.20
298;DHT22;133;49.626;9.680;2023-12-14T14:01:10;8.20;97.60
298;DHT22;133;49.626;9.680;2023-12-14T14:03:36;8.30;97.80
298;DHT22;133;49.626;9.680;2023-12-14T14:06:05;8.30;97.90
298;DHT22;133;49.626;9.680;2023-12-14T14:08:32;8.30;97.70
298;DHT22;133;49.626;9.680;2023-12-14T14:10:58;8.20;97.70
298;DHT22;133;49.626;9.680;2023-12-14T14:13:24;8.30;97.50
298;DHT22;133;49.626;9.680;2023-12-14T14:15:50;8.20;97.60
298;DHT22;133;49.626;9.680;2023-12-14T14:18:16;8.20;98.00
298;DHT22;133;49.626;9.680;2023-12-14T14:20:42;8.20;97.90
298;DHT22;133;49.626;9.680;2023-12-14T14:23:07;8.20;97.70
298;DHT22;133;49.626;9.680;2023-12-14T14:25:33;8.10;98.20
298;DHT22;133;49.626;9.680;2023-12-14T14:27:59;8.20;98.70
298;DHT22;133;49.626;9.680;2023-12-14T14:30:24;8.20;98.30
298;DHT22;133;49.626;9.680;2023-12-14T14:32:50;8.20;98.00
298;DHT22;133;49.626;9.680;2023-12-14T14:35:16;8.20;98.00
298;DHT22;133;49.626;9.680;2023-12-14T14:37:42;8.20;97.90
298;DHT22;133;49.626;9.680;2023-12-14T14:40:11;8.10;98.40
298;DHT22;133;49.626;9.680;2023-12-14T14:42:37;8.10;98.30
298;DHT22;133;49.626;9.680;2023-12-14T14:45:02;8.20;97.90
298;DHT22;133;49.626;9.680;2023-12-14T14:47:28;8.10;98.00
298;DHT22;133;49.626;9.680;2023-12-14T14:49:54;8.10;97.70
298;DHT22;133;49.626;9.680;2023-12-14T14:52:28;8.10;98.00
298;DHT22;133;49.626;9.680;2023-12-14T14:54:54;8.00;98.10
298;DHT22;133;49.626;9.680;2023-12-14T14:57:19;8.10;98.10
298;DHT22;133;49.626;9.680;2023-12-14T14:59:45;8.10;97.40
298;DHT22;133;49.626;9.680;2023-12-14T15:02:11;8.00;98.00
298;DHT22;133;49.626;9.680;2023-12-14T15:04:36;8.00;98.00
298;DHT22;133;49.626;9.680;2023-12-14T15:07:02;8.00;97.90
298;DHT22;133;49.626;9.680;2023-12-14T15:09:28;8.00;97.90
298;DHT22;133;49.626;9.680;2023-12-14T15:11:54;7.90;97.80
298;DHT22;133;49.626;9.680;2023-12-14T15:14:19;7.90;98.20
298;DHT22;133;49.626;9.680;2023-12-14T15:16:45;8.00;98.10
298;DHT22;133;49.626;9.680;2023-12-14T15:19:11;8.10;98.10
298;DHT22;133;49.626;9.680;2023-12-14T15:21:37;8.00;97.60
298;DHT22;133;49.626;9.680;2023-12-14T15:24:03;8.00;97.70
298;DHT22;133;49.626;9.680;2023-12-14T15:26:28;8.10;97.90
298;DHT22;133;49.626;9.680;2023-12-14T15:28:57;8.10;98.00
298;DHT22;133;49.626;9.680;2023-12-14T15:31:23;8.10;97.60
298;DHT22;133;49.626;9.680;2023-12-14T15:33:48;8.20;97.50
298;DHT22;133;49.626;9.680;2023-12-14T15:36:14;8.20;97.60
298;DHT22;133;49.626;9.680;2023-12-14T15:38:40;8.20;97.50
298;DHT22;133;49.626;9.680;2023-12-14T15:41:10;8.20;97.40
298;DHT22;133;49.626;9.680;2023-12-14T15:43:36;8.20;97.20
298;DHT22;133;49.626;9.680;2023-12-14T15:46:02;8.20;96.80
298;DHT22;133;49.626;9.680;2023-12-14T15:48:28;8.10;96.30
298;DHT22;133;49.626;9.680;2023-12-14T15:50:53;8.20;96.60
298;DHT22;133;49.626;9.680;2023-12-14T15:53:19;8.10;96.60
298;DHT22;133;49.626;9.680;2023-12-14T15:55:45;8.10;96.90
298;DHT22;133;49.626;9.680;2023-12-14T15:58:10;8.00;97.30
298;DHT22;133;49.626;9.680;2023-12-14T16:00:37;8.00;97.10
298;DHT22;133;49.626;9.680;2023-12-14T16:03:04;7.90;97.30
298;DHT22;133;49.626;9.680;2023-12-14T16:05:30;7.90;97.90
298;DHT22;133;49.626;9.680;2023-12-14T16:07:55;7.90;98.10
298;DHT22;133;49.626;9.680;2023-12-14T16:10:21;7.80;98.20
298;DHT22;133;49.626;9.680;2023-12-14T16:12:47;7.80;98.20
298;DHT22;133;49.626;9.680;2023-12-14T16:15:13;7.90;97.90
298;DHT22;133;49.626;9.680;2023-12-14T16:17:38;7.80;98.00
298;DHT22;133;49.626;9.680;2023-12-14T16:20:04;7.80;97.80
298;DHT22;133;49.626;9.680;2023-12-14T16:22:30;7.80;98.00
298;DHT22;133;49.626;9.680;2023-12-14T16:24:56;7.80;98.10
298;DHT22;133;49.626;9.680;2023-12-14T16:27:21;7.80;97.80
298;DHT22;133;49.626;9.680;2023-12-14T16:29:48;7.80;97.80
298;DHT22;133;49.626;9.680;2023-12-14T16:32:17;7.70;97.90
298;DHT22;133;49.626;9.680;2023-12-14T16:34:43;7.70;98.50
298;DHT22;133;49.626;9.680;2023-12-14T16:37:09;7.70;98.50
298;DHT22;133;49.626;9.680;2023-12-14T16:39:34;7.80;98.20
298;DHT22;133;49.626;9.680;2023-12-14T16:42:01;7.80;98.20
298;DHT22;133;49.626;9.680;2023-12-14T16:44:27;7.80;98.40
298;DHT22;133;49.626;9.680;2023-12-14T16:46:53;7.90;98.50
298;DHT22;133;49.626;9.680;2023-12-14T16:49:18;8.00;98.50
298;DHT22;133;49.626;9.680;2023-12-14T16:51:45;8.00;98.50
298;DHT22;133;49.626;9.680;2023-12-14T16:54:11;8.00;98.50